sensor_id;sensor_type;location;lat;lon;timestamp;pressure;altitude;pressure_sealevel;temperature;humidity
31239;BME280;17871;31.584;74.450;2022-07-29T00:01:42;97726.44;;;30.67;100.00
31239;BME280;17871;31.584;74.450;2022-07-29T00:04:12;97736.81;;;30.59;100.00
31239;BME280;17871;31.584;74.450;2022-07-29T00:06:42;97732.59;;;30.56;100.00
31239;BME280;17871;31.584;74.450;2022-07-29T00:09:11;97728.22;;;30.66;100.00
31239;BME280;17871;31.584;74.450;2022-07-29T00:11:40;97734.50;;;30.65;100.00
31239;BME280;17871;31.584;74.450;2022-07-29T00:14:09;97732.94;;;30.63;100.00
31239;BME280;17871;31.584;74.450;2022-07-29T00:16:38;97737.41;;;30.62;100.00
31239;BME280;17871;31.584;74.450;2022-07-29T00:19:07;97736.34;;;30.74;100.00
31239;BME280;17871;31.584;74.450;2022-07-29T00:21:37;97734.09;;;30.70;100.00
31239;BME280;17871;31.584;74.450;2022-07-29T00:24:06;97743.41;;;30.74;100.00
31239;BME280;17871;31.584;74.450;2022-07-29T00:26:35;97742.41;;;30.65;100.00
31239;BME280;17871;31.584;74.450;2022-07-29T00:29:05;97734.41;;;30.76;100.00
31239;BME280;17871;31.584;74.450;2022-07-29T00:31:54;97735.19;;;30.67;100.00
31239;BME280;17871;31.584;74.450;2022-07-29T00:34:23;97743.31;;;30.75;100.00
31239;BME280;17871;31.584;74.450;2022-07-29T00:37:11;97740.25;;;30.80;100.00
31239;BME280;17871;31.584;74.450;2022-07-29T00:39:40;97744.00;;;30.77;100.00
31239;BME280;17871;31.584;74.450;2022-07-29T00:42:09;97745.25;;;30.83;100.00
31239;BME280;17871;31.584;74.450;2022-07-29T00:44:40;97742.81;;;30.91;100.00
31239;BME280;17871;31.584;74.450;2022-07-29T00:47:10;97743.50;;;30.93;100.00
31239;BME280;17871;31.584;74.450;2022-07-29T00:49:41;97755.44;;;30.87;100.00
31239;BME280;17871;31.584;74.450;2022-07-29T00:52:11;97752.22;;;30.84;100.00
31239;BME280;17871;31.584;74.450;2022-07-29T00:54:43;97748.94;;;30.92;100.00
31239;BME280;17871;31.584;74.450;2022-07-29T00:57:13;97753.19;;;30.83;100.00
31239;BME280;17871;31.584;74.450;2022-07-29T00:59:42;97756.13;;;30.89;100.00
31239;BME280;17871;31.584;74.450;2022-07-29T01:02:11;97760.03;;;30.85;100.00
31239;BME280;17871;31.584;74.450;2022-07-29T01:04:41;97755.41;;;30.99;100.00
31239;BME280;17871;31.584;74.450;2022-07-29T01:07:10;97756.94;;;31.01;100.00
31239;BME280;17871;31.584;74.450;2022-07-29T01:09:40;97754.59;;;31.08;100.00
31239;BME280;17871;31.584;74.450;2022-07-29T01:12:25;97761.03;;;31.15;100.00
31239;BME280;17871;31.584;74.450;2022-07-29T01:14:55;97761.78;;;31.06;100.00
31239;BME280;17871;31.584;74.450;2022-07-29T01:18:30;97762.03;;;31.23;100.00
31239;BME280;17871;31.584;74.450;2022-07-29T01:29:41;97766.13;;;31.37;100.00
31239;BME280;17871;31.584;74.450;2022-07-29T01:32:17;97750.13;;;31.38;100.00
31239;BME280;17871;31.584;74.450;2022-07-29T01:35:15;97763.38;;;31.48;100.00
31239;BME280;17871;31.584;74.450;2022-07-29T01:40:51;97775.16;;;31.74;100.00
31239;BME280;17871;31.584;74.450;2022-07-29T01:43:23;97777.34;;;31.69;100.00
31239;BME280;17871;31.584;74.450;2022-07-29T01:46:00;97782.50;;;31.61;100.00
31239;BME280;17871;31.584;74.450;2022-07-29T01:48:49;97781.50;;;31.62;100.00
31239;BME280;17871;31.584;74.450;2022-07-29T01:51:31;97781.22;;;31.65;100.00
31239;BME280;17871;31.584;74.450;2022-07-29T01:54:12;97780.16;;;31.77;100.00
31239;BME280;17871;31.584;74.450;2022-07-29T01:56:43;97783.47;;;31.60;100.00
31239;BME280;17871;31.584;74.450;2022-07-29T01:59:16;97778.31;;;31.68;100.00
31239;BME280;17871;31.584;74.450;2022-07-29T02:01:48;97789.31;;;31.64;100.00
31239;BME280;17871;31.584;74.450;2022-07-29T02:04:21;97800.53;;;31.56;100.00
31239;BME280;17871;31.584;74.450;2022-07-29T02:07:04;97802.41;;;31.75;100.00
31239;BME280;17871;31.584;74.450;2022-07-29T02:09:35;97803.50;;;31.72;100.00
31239;BME280;17871;31.584;74.450;2022-07-29T02:12:06;97812.94;;;31.65;100.00
31239;BME280;17871;31.584;74.450;2022-07-29T02:14:45;97821.41;;;31.59;100.00
31239;BME280;17871;31.584;74.450;2022-07-29T02:17:22;97825.88;;;31.68;100.00
31239;BME280;17871;31.584;74.450;2022-07-29T02:19:56;97837.97;;;31.61;100.00
31239;BME280;17871;31.584;74.450;2022-07-29T02:22:29;97829.81;;;31.74;100.00
31239;BME280;17871;31.584;74.450;2022-07-29T02:24:59;97831.75;;;31.72;100.00
31239;BME280;17871;31.584;74.450;2022-07-29T02:27:30;97830.13;;;31.80;100.00
31239;BME280;17871;31.584;74.450;2022-07-29T02:30:03;97842.22;;;31.83;100.00
31239;BME280;17871;31.584;74.450;2022-07-29T02:32:35;97843.91;;;31.94;100.00
31239;BME280;17871;31.584;74.450;2022-07-29T02:35:08;97839.50;;;32.04;100.00
31239;BME280;17871;31.584;74.450;2022-07-29T02:37:39;97857.81;;;31.86;100.00
31239;BME280;17871;31.584;74.450;2022-07-29T02:40:11;97854.41;;;32.05;100.00
31239;BME280;17871;31.584;74.450;2022-07-29T02:42:44;97861.50;;;32.04;100.00
31239;BME280;17871;31.584;74.450;2022-07-29T02:45:15;97863.34;;;31.73;100.00
31239;BME280;17871;31.584;74.450;2022-07-29T02:47:47;97870.06;;;31.87;100.00
31239;BME280;17871;31.584;74.450;2022-07-29T02:50:22;97863.75;;;31.78;100.00
31239;BME280;17871;31.584;74.450;2022-07-29T02:53:00;97860.16;;;31.79;100.00
31239;BME280;17871;31.584;74.450;2022-07-29T02:55:40;97865.72;;;31.86;100.00
31239;BME280;17871;31.584;74.450;2022-07-29T02:58:24;97870.06;;;31.57;100.00
31239;BME280;17871;31.584;74.450;2022-07-29T03:01:02;97872.97;;;31.33;100.00
31239;BME280;17871;31.584;74.450;2022-07-29T03:03:37;97874.19;;;31.50;100.00
31239;BME280;17871;31.584;74.450;2022-07-29T03:06:07;97886.53;;;31.49;100.00
31239;BME280;17871;31.584;74.450;2022-07-29T03:08:58;97880.03;;;31.74;100.00
31239;BME280;17871;31.584;74.450;2022-07-29T03:11:28;97883.47;;;32.05;100.00
31239;BME280;17871;31.584;74.450;2022-07-29T03:14:18;97889.34;;;32.18;100.00
31239;BME280;17871;31.584;74.450;2022-07-29T03:16:49;97889.72;;;32.04;100.00
31239;BME280;17871;31.584;74.450;2022-07-29T03:19:19;97893.25;;;32.14;100.00
31239;BME280;17871;31.584;74.450;2022-07-29T03:21:49;97892.13;;;32.07;100.00
31239;BME280;17871;31.584;74.450;2022-07-29T03:24:44;97895.22;;;32.21;100.00
31239;BME280;17871;31.584;74.450;2022-07-29T03:27:13;97900.09;;;32.16;100.00
31239;BME280;17871;31.584;74.450;2022-07-29T03:29:43;97906.06;;;32.18;100.00
31239;BME280;17871;31.584;74.450;2022-07-29T03:32:17;97895.19;;;32.12;100.00
31239;BME280;17871;31.584;74.450;2022-07-29T03:34:51;97907.50;;;32.32;100.00
31239;BME280;17871;31.584;74.450;2022-07-29T03:37:21;97902.75;;;32.35;100.00
31239;BME280;17871;31.584;74.450;2022-07-29T03:39:51;97908.06;;;32.35;100.00
31239;BME280;17871;31.584;74.450;2022-07-29T03:42:27;97911.00;;;32.42;100.00
31239;BME280;17871;31.584;74.450;2022-07-29T03:45:05;97915.03;;;32.56;100.00
31239;BME280;17871;31.584;74.450;2022-07-29T03:47:39;97919.88;;;32.41;100.00
31239;BME280;17871;31.584;74.450;2022-07-29T03:50:20;97915.03;;;32.36;100.00
31239;BME280;17871;31.584;74.450;2022-07-29T03:52:51;97918.69;;;32.74;100.00
31239;BME280;17871;31.584;74.450;2022-07-29T03:55:20;97913.28;;;32.66;100.00
31239;BME280;17871;31.584;74.450;2022-07-29T03:57:50;97928.09;;;32.38;100.00
31239;BME280;17871;31.584;74.450;2022-07-29T04:00:22;97931.19;;;32.43;100.00
31239;BME280;17871;31.584;74.450;2022-07-29T04:02:52;97936.25;;;32.65;100.00
31239;BME280;17871;31.584;74.450;2022-07-29T04:05:21;97938.75;;;32.57;100.00
31239;BME280;17871;31.584;74.450;2022-07-29T04:07:50;97942.94;;;32.60;100.00
31239;BME280;17871;31.584;74.450;2022-07-29T04:10:20;97953.38;;;32.61;100.00
31239;BME280;17871;31.584;74.450;2022-07-29T04:12:59;97944.59;;;32.70;100.00
31239;BME280;17871;31.584;74.450;2022-07-29T04:15:28;97939.31;;;32.70;100.00
31239;BME280;17871;31.584;74.450;2022-07-29T04:17:59;97951.31;;;32.74;100.00
31239;BME280;17871;31.584;74.450;2022-07-29T04:20:28;97954.38;;;32.79;100.00
31239;BME280;17871;31.584;74.450;2022-07-29T04:22:57;97951.75;;;32.99;100.00
31239;BME280;17871;31.584;74.450;2022-07-29T04:25:26;97949.66;;;33.02;100.00
31239;BME280;17871;31.584;74.450;2022-07-29T04:27:55;97939.06;;;32.93;100.00
31239;BME280;17871;31.584;74.450;2022-07-29T04:30:35;97951.59;;;33.10;100.00
31239;BME280;17871;31.584;74.450;2022-07-29T04:33:06;97949.38;;;33.15;100.00
31239;BME280;17871;31.584;74.450;2022-07-29T04:35:37;97949.38;;;33.24;100.00
31239;BME280;17871;31.584;74.450;2022-07-29T04:38:19;97954.09;;;33.02;100.00
31239;BME280;17871;31.584;74.450;2022-07-29T04:40:48;97947.56;;;33.25;100.00
31239;BME280;17871;31.584;74.450;2022-07-29T04:43:17;97950.78;;;33.28;100.00
31239;BME280;17871;31.584;74.450;2022-07-29T04:45:50;97945.28;;;33.39;100.00
31239;BME280;17871;31.584;74.450;2022-07-29T04:48:19;97951.31;;;33.42;100.00
31239;BME280;17871;31.584;74.450;2022-07-29T04:50:56;97957.16;;;33.45;100.00
31239;BME280;17871;31.584;74.450;2022-07-29T04:56:14;97955.47;;;33.44;100.00
31239;BME280;17871;31.584;74.450;2022-07-29T04:58:43;97952.72;;;33.36;100.00
31239;BME280;17871;31.584;74.450;2022-07-29T05:01:12;97958.66;;;33.57;100.00
31239;BME280;17871;31.584;74.450;2022-07-29T05:03:41;97958.25;;;33.71;100.00
31239;BME280;17871;31.584;74.450;2022-07-29T05:06:11;97953.75;;;33.81;100.00
31239;BME280;17871;31.584;74.450;2022-07-29T05:08:40;97954.16;;;33.77;100.00
31239;BME280;17871;31.584;74.450;2022-07-29T05:11:09;97963.25;;;33.74;100.00
31239;BME280;17871;31.584;74.450;2022-07-29T05:13:43;97962.16;;;33.67;100.00
31239;BME280;17871;31.584;74.450;2022-07-29T05:16:14;97964.38;;;33.53;100.00
31239;BME280;17871;31.584;74.450;2022-07-29T05:18:43;97959.88;;;33.72;100.00
31239;BME280;17871;31.584;74.450;2022-07-29T05:21:12;97963.25;;;33.74;100.00
31239;BME280;17871;31.584;74.450;2022-07-29T05:23:41;97966.50;;;33.96;100.00
31239;BME280;17871;31.584;74.450;2022-07-29T05:26:10;97970.16;;;33.95;100.00
31239;BME280;17871;31.584;74.450;2022-07-29T05:28:40;97963.59;;;33.99;100.00
31239;BME280;17871;31.584;74.450;2022-07-29T05:31:09;97964.94;;;33.75;100.00
31239;BME280;17871;31.584;74.450;2022-07-29T05:33:55;97961.06;;;33.97;100.00
31239;BME280;17871;31.584;74.450;2022-07-29T05:36:24;97957.91;;;33.84;100.00
31239;BME280;17871;31.584;74.450;2022-07-29T05:38:53;97964.91;;;33.85;100.00
31239;BME280;17871;31.584;74.450;2022-07-29T05:41:22;97964.56;;;33.98;100.00
31239;BME280;17871;31.584;74.450;2022-07-29T05:43:51;97959.50;;;34.14;100.00
31239;BME280;17871;31.584;74.450;2022-07-29T05:46:21;97954.22;;;34.04;100.00
31239;BME280;17871;31.584;74.450;2022-07-29T05:48:50;97952.56;;;33.94;100.00
31239;BME280;17871;31.584;74.450;2022-07-29T05:51:19;97946.91;;;34.16;100.00
31239;BME280;17871;31.584;74.450;2022-07-29T05:53:48;97944.56;;;34.13;100.00
31239;BME280;17871;31.584;74.450;2022-07-29T05:56:17;97938.63;;;34.46;100.00
31239;BME280;17871;31.584;74.450;2022-07-29T05:58:47;97935.25;;;34.54;100.00
31239;BME280;17871;31.584;74.450;2022-07-29T06:01:21;97929.34;;;34.60;100.00
31239;BME280;17871;31.584;74.450;2022-07-29T06:15:59;97909.16;;;35.02;97.01
31239;BME280;17871;31.584;74.450;2022-07-29T06:18:29;97899.19;;;35.14;96.62
31239;BME280;17871;31.584;74.450;2022-07-29T06:20:59;97896.56;;;35.22;95.89
31239;BME280;17871;31.584;74.450;2022-07-29T06:23:28;97901.63;;;35.33;97.95
31239;BME280;17871;31.584;74.450;2022-07-29T06:25:57;97892.25;;;35.03;96.85
31239;BME280;17871;31.584;74.450;2022-07-29T06:28:27;97896.34;;;34.98;97.71
31239;BME280;17871;31.584;74.450;2022-07-29T06:30:56;97890.44;;;35.04;96.43
31239;BME280;17871;31.584;74.450;2022-07-29T06:33:26;97887.91;;;35.20;95.25
31239;BME280;17871;31.584;74.450;2022-07-29T06:35:55;97885.94;;;35.22;95.56
31239;BME280;17871;31.584;74.450;2022-07-29T06:38:25;97889.22;;;35.16;95.19
31239;BME280;17871;31.584;74.450;2022-07-29T06:41:00;97892.19;;;35.13;94.73
31239;BME280;17871;31.584;74.450;2022-07-29T06:43:39;97890.56;;;35.46;95.18
31239;BME280;17871;31.584;74.450;2022-07-29T06:46:22;97895.13;;;35.53;94.67
31239;BME280;17871;31.584;74.450;2022-07-29T06:48:51;97882.81;;;35.09;94.13
31239;BME280;17871;31.584;74.450;2022-07-29T06:51:21;97887.84;;;35.12;94.70
31239;BME280;17871;31.584;74.450;2022-07-29T06:53:51;97886.09;;;35.20;95.11
31239;BME280;17871;31.584;74.450;2022-07-29T06:56:31;97889.56;;;35.21;95.54
31239;BME280;17871;31.584;74.450;2022-07-29T06:59:08;97875.09;;;35.15;94.71
31239;BME280;17871;31.584;74.450;2022-07-29T07:01:40;97875.25;;;35.14;95.41
31239;BME280;17871;31.584;74.450;2022-07-29T07:04:10;97876.59;;;35.43;95.11
31239;BME280;17871;31.584;74.450;2022-07-29T07:06:40;97873.84;;;35.27;94.67
31239;BME280;17871;31.584;74.450;2022-07-29T07:09:09;97871.34;;;35.26;96.00
31239;BME280;17871;31.584;74.450;2022-07-29T07:11:39;97865.88;;;35.27;93.61
31239;BME280;17871;31.584;74.450;2022-07-29T07:14:08;97864.66;;;35.22;92.68
31239;BME280;17871;31.584;74.450;2022-07-29T07:16:38;97851.56;;;35.03;93.22
31239;BME280;17871;31.584;74.450;2022-07-29T07:19:07;97839.22;;;34.94;93.27
31239;BME280;17871;31.584;74.450;2022-07-29T07:21:36;97843.06;;;35.17;93.39
31239;BME280;17871;31.584;74.450;2022-07-29T07:24:06;97843.78;;;35.27;91.64
31239;BME280;17871;31.584;74.450;2022-07-29T07:26:35;97843.59;;;35.20;90.90
31239;BME280;17871;31.584;74.450;2022-07-29T07:29:05;97844.91;;;35.24;91.90
31239;BME280;17871;31.584;74.450;2022-07-29T07:31:36;97839.16;;;35.37;93.25
31239;BME280;17871;31.584;74.450;2022-07-29T07:34:05;97831.06;;;35.38;93.07
31239;BME280;17871;31.584;74.450;2022-07-29T07:36:36;97828.78;;;35.18;95.82
31239;BME280;17871;31.584;74.450;2022-07-29T07:39:05;97831.06;;;35.13;93.63
31239;BME280;17871;31.584;74.450;2022-07-29T07:41:34;97826.09;;;35.18;92.21
31239;BME280;17871;31.584;74.450;2022-07-29T07:44:04;97829.13;;;34.97;90.40
31239;BME280;17871;31.584;74.450;2022-07-29T07:46:34;97821.59;;;34.92;92.54
31239;BME280;17871;31.584;74.450;2022-07-29T07:49:04;97814.56;;;34.83;92.02
31239;BME280;17871;31.584;74.450;2022-07-29T07:51:34;97805.03;;;34.99;92.34
31239;BME280;17871;31.584;74.450;2022-07-29T07:54:04;97804.06;;;35.00;90.85
31239;BME280;17871;31.584;74.450;2022-07-29T07:56:33;97799.06;;;34.97;90.44
31239;BME280;17871;31.584;74.450;2022-07-29T07:59:03;97795.41;;;34.98;91.64
31239;BME280;17871;31.584;74.450;2022-07-29T08:01:32;97798.69;;;34.91;92.18
31239;BME280;17871;31.584;74.450;2022-07-29T08:04:22;97783.44;;;34.94;92.96
31239;BME280;17871;31.584;74.450;2022-07-29T08:06:56;97770.94;;;35.12;93.40
31239;BME280;17871;31.584;74.450;2022-07-29T08:09:26;97752.81;;;35.07;92.88
31239;BME280;17871;31.584;74.450;2022-07-29T08:11:58;97747.81;;;35.30;93.56
31239;BME280;17871;31.584;74.450;2022-07-29T08:14:28;97750.38;;;35.14;92.90
31239;BME280;17871;31.584;74.450;2022-07-29T08:16:57;97744.13;;;35.31;92.31
31239;BME280;17871;31.584;74.450;2022-07-29T08:19:27;97748.84;;;34.85;89.88
31239;BME280;17871;31.584;74.450;2022-07-29T08:22:14;97738.16;;;35.03;92.65
31239;BME280;17871;31.584;74.450;2022-07-29T08:24:43;97749.88;;;34.49;90.83
31239;BME280;17871;31.584;74.450;2022-07-29T08:27:30;97747.31;;;34.39;92.22
31239;BME280;17871;31.584;74.450;2022-07-29T08:30:10;97741.41;;;33.75;93.89
31239;BME280;17871;31.584;74.450;2022-07-29T08:32:40;97731.16;;;33.80;95.44
31239;BME280;17871;31.584;74.450;2022-07-29T08:35:22;97721.69;;;33.50;94.45
31239;BME280;17871;31.584;74.450;2022-07-29T08:37:52;97711.19;;;33.58;95.35
31239;BME280;17871;31.584;74.450;2022-07-29T08:40:21;97715.78;;;33.56;95.85
31239;BME280;17871;31.584;74.450;2022-07-29T08:43:07;97708.81;;;33.82;97.19
31239;BME280;17871;31.584;74.450;2022-07-29T08:45:48;97708.22;;;33.88;96.13
31239;BME280;17871;31.584;74.450;2022-07-29T08:48:19;97712.16;;;33.12;98.77
31239;BME280;17871;31.584;74.450;2022-07-29T08:50:55;97717.09;;;33.25;98.37
31239;BME280;17871;31.584;74.450;2022-07-29T08:53:26;97714.03;;;33.29;100.00
31239;BME280;17871;31.584;74.450;2022-07-29T08:55:56;97719.34;;;33.20;98.46
31239;BME280;17871;31.584;74.450;2022-07-29T08:58:27;97720.47;;;33.17;100.00
31239;BME280;17871;31.584;74.450;2022-07-29T09:01:03;97713.81;;;33.04;100.00
31239;BME280;17871;31.584;74.450;2022-07-29T09:03:39;97727.06;;;33.04;100.00
31239;BME280;17871;31.584;74.450;2022-07-29T09:06:09;97723.06;;;32.90;100.00
31239;BME280;17871;31.584;74.450;2022-07-29T09:08:42;97727.63;;;32.98;100.00
31239;BME280;17871;31.584;74.450;2022-07-29T09:11:12;97723.59;;;32.94;100.00
31239;BME280;17871;31.584;74.450;2022-07-29T09:13:42;97717.94;;;32.79;100.00
31239;BME280;17871;31.584;74.450;2022-07-29T09:16:12;97712.78;;;32.77;100.00
31239;BME280;17871;31.584;74.450;2022-07-29T09:19:01;97696.63;;;32.80;100.00
31239;BME280;17871;31.584;74.450;2022-07-29T09:21:40;97689.94;;;32.86;100.00
31239;BME280;17871;31.584;74.450;2022-07-29T09:24:41;97692.41;;;32.87;100.00
31239;BME280;17871;31.584;74.450;2022-07-29T09:27:22;97706.69;;;32.67;100.00
31239;BME280;17871;31.584;74.450;2022-07-29T09:30:00;97702.69;;;32.54;100.00
31239;BME280;17871;31.584;74.450;2022-07-29T09:32:30;97696.16;;;32.29;100.00
31239;BME280;17871;31.584;74.450;2022-07-29T09:35:20;97675.56;;;32.23;100.00
31239;BME280;17871;31.584;74.450;2022-07-29T09:37:50;97661.81;;;32.10;100.00
31239;BME280;17871;31.584;74.450;2022-07-29T09:40:27;97658.88;;;32.22;100.00
31239;BME280;17871;31.584;74.450;2022-07-29T09:42:57;97668.91;;;32.19;100.00
31239;BME280;17871;31.584;74.450;2022-07-29T09:45:31;97675.84;;;32.20;100.00
31239;BME280;17871;31.584;74.450;2022-07-29T09:48:21;97684.44;;;32.41;100.00
31239;BME280;17871;31.584;74.450;2022-07-29T09:50:51;97694.78;;;32.25;100.00
31239;BME280;17871;31.584;74.450;2022-07-29T09:53:36;97693.66;;;32.18;100.00
31239;BME280;17871;31.584;74.450;2022-07-29T09:56:06;97682.50;;;31.95;100.00
31239;BME280;17871;31.584;74.450;2022-07-29T09:58:36;97684.91;;;32.08;100.00
31239;BME280;17871;31.584;74.450;2022-07-29T10:01:05;97674.31;;;32.08;100.00
31239;BME280;17871;31.584;74.450;2022-07-29T10:03:52;97685.59;;;32.29;100.00
31239;BME280;17871;31.584;74.450;2022-07-29T10:06:22;97676.84;;;32.09;100.00
31239;BME280;17871;31.584;74.450;2022-07-29T10:08:54;97663.88;;;32.16;100.00
31239;BME280;17871;31.584;74.450;2022-07-29T10:11:23;97666.09;;;32.01;100.00
31239;BME280;17871;31.584;74.450;2022-07-29T10:14:13;97655.94;;;31.97;100.00
31239;BME280;17871;31.584;74.450;2022-07-29T10:16:43;97660.53;;;31.95;100.00
31239;BME280;17871;31.584;74.450;2022-07-29T10:19:13;97652.06;;;32.01;100.00
31239;BME280;17871;31.584;74.450;2022-07-29T10:21:42;97657.34;;;32.01;100.00
31239;BME280;17871;31.584;74.450;2022-07-29T10:24:13;97659.16;;;32.10;100.00
31239;BME280;17871;31.584;74.450;2022-07-29T10:26:46;97650.38;;;32.00;100.00
31239;BME280;17871;31.584;74.450;2022-07-29T10:29:16;97651.22;;;31.91;100.00
31239;BME280;17871;31.584;74.450;2022-07-29T10:32:08;97654.72;;;32.20;100.00
31239;BME280;17871;31.584;74.450;2022-07-29T10:34:53;97642.69;;;32.35;100.00
31239;BME280;17871;31.584;74.450;2022-07-29T10:43:33;97644.97;;;32.20;100.00
31239;BME280;17871;31.584;74.450;2022-07-29T10:46:05;97642.34;;;32.11;100.00
31239;BME280;17871;31.584;74.450;2022-07-29T10:48:35;97645.22;;;32.08;100.00
31239;BME280;17871;31.584;74.450;2022-07-29T10:51:08;97639.13;;;32.17;100.00
31239;BME280;17871;31.584;74.450;2022-07-29T10:53:52;97648.84;;;32.26;100.00
31239;BME280;17871;31.584;74.450;2022-07-29T10:56:27;97647.44;;;32.22;100.00
31239;BME280;17871;31.584;74.450;2022-07-29T11:01:50;97643.44;;;32.08;100.00
31239;BME280;17871;31.584;74.450;2022-07-29T11:07:16;97640.38;;;32.13;100.00
31239;BME280;17871;31.584;74.450;2022-07-29T11:15:14;97624.09;;;32.08;100.00
31239;BME280;17871;31.584;74.450;2022-07-29T11:20:39;97614.03;;;32.21;100.00
31239;BME280;17871;31.584;74.450;2022-07-29T11:23:24;97610.84;;;32.27;100.00
31239;BME280;17871;31.584;74.450;2022-07-29T11:26:15;97621.56;;;32.16;100.00
31239;BME280;17871;31.584;74.450;2022-07-29T11:28:57;97618.78;;;32.08;100.00
31239;BME280;17871;31.584;74.450;2022-07-29T11:34:34;97617.97;;;31.78;100.00
31239;BME280;17871;31.584;74.450;2022-07-29T11:45:18;97602.53;;;31.83;100.00
31239;BME280;17871;31.584;74.450;2022-07-29T11:48:15;97607.78;;;32.03;100.00
31239;BME280;17871;31.584;74.450;2022-07-29T11:50:58;97598.78;;;32.05;100.00
31239;BME280;17871;31.584;74.450;2022-07-29T11:53:28;97606.00;;;31.94;100.00
31239;BME280;17871;31.584;74.450;2022-07-29T11:56:00;97613.09;;;32.12;100.00
31239;BME280;17871;31.584;74.450;2022-07-29T11:58:30;97617.13;;;31.97;100.00
31239;BME280;17871;31.584;74.450;2022-07-29T12:01:04;97621.59;;;31.97;100.00
31239;BME280;17871;31.584;74.450;2022-07-29T12:03:35;97614.03;;;32.02;100.00
31239;BME280;17871;31.584;74.450;2022-07-29T12:06:12;97615.97;;;32.28;100.00
31239;BME280;17871;31.584;74.450;2022-07-29T12:09:09;97619.44;;;32.38;100.00
31239;BME280;17871;31.584;74.450;2022-07-29T12:11:41;97610.59;;;32.11;100.00
31239;BME280;17871;31.584;74.450;2022-07-29T12:14:32;97618.78;;;32.27;100.00
31239;BME280;17871;31.584;74.450;2022-07-29T12:17:01;97608.50;;;32.05;100.00
31239;BME280;17871;31.584;74.450;2022-07-29T12:19:42;97599.03;;;32.12;100.00
31239;BME280;17871;31.584;74.450;2022-07-29T12:22:12;97583.47;;;32.09;100.00
31239;BME280;17871;31.584;74.450;2022-07-29T12:24:44;97585.69;;;32.04;100.00
31239;BME280;17871;31.584;74.450;2022-07-29T12:27:17;97578.72;;;32.03;100.00
31239;BME280;17871;31.584;74.450;2022-07-29T12:29:57;97580.97;;;31.98;100.00
31239;BME280;17871;31.584;74.450;2022-07-29T12:32:52;97581.50;;;32.20;100.00
31239;BME280;17871;31.584;74.450;2022-07-29T12:35:21;97587.91;;;31.89;100.00
31239;BME280;17871;31.584;74.450;2022-07-29T12:37:50;97586.78;;;31.92;100.00
31239;BME280;17871;31.584;74.450;2022-07-29T12:40:22;97588.19;;;31.96;100.00
31239;BME280;17871;31.584;74.450;2022-07-29T12:43:11;97595.56;;;31.44;100.00
31239;BME280;17871;31.584;74.450;2022-07-29T12:45:44;97602.25;;;32.06;100.00
31239;BME280;17871;31.584;74.450;2022-07-29T12:48:17;97609.59;;;32.02;100.00
31239;BME280;17871;31.584;74.450;2022-07-29T12:50:59;97619.06;;;32.24;100.00
31239;BME280;17871;31.584;74.450;2022-07-29T12:53:29;97625.75;;;32.09;100.00
31239;BME280;17871;31.584;74.450;2022-07-29T12:55:59;97622.97;;;32.01;100.00
31239;BME280;17871;31.584;74.450;2022-07-29T12:58:51;97611.00;;;31.97;100.00
31239;BME280;17871;31.584;74.450;2022-07-29T13:01:21;97606.56;;;31.97;100.00
31239;BME280;17871;31.584;74.450;2022-07-29T13:03:55;97604.19;;;31.94;100.00
31239;BME280;17871;31.584;74.450;2022-07-29T13:06:44;97610.19;;;32.06;100.00
31239;BME280;17871;31.584;74.450;2022-07-29T13:09:19;97610.75;;;31.80;100.00
31239;BME280;17871;31.584;74.450;2022-07-29T13:11:52;97615.78;;;31.64;100.00
31239;BME280;17871;31.584;74.450;2022-07-29T13:14:33;97630.38;;;31.87;100.00
31239;BME280;17871;31.584;74.450;2022-07-29T13:19:47;97647.88;;;31.69;100.00
31239;BME280;17871;31.584;74.450;2022-07-29T13:22:20;97654.97;;;31.69;100.00
31239;BME280;17871;31.584;74.450;2022-07-29T13:24:50;97664.84;;;31.67;100.00
31239;BME280;17871;31.584;74.450;2022-07-29T13:27:26;97671.38;;;31.63;100.00
31239;BME280;17871;31.584;74.450;2022-07-29T13:29:57;97664.66;;;31.49;100.00
31239;BME280;17871;31.584;74.450;2022-07-29T13:32:29;97665.13;;;31.73;100.00
31239;BME280;17871;31.584;74.450;2022-07-29T13:35:01;97660.81;;;31.72;100.00
31239;BME280;17871;31.584;74.450;2022-07-29T13:37:33;97652.19;;;31.51;100.00
31239;BME280;17871;31.584;74.450;2022-07-29T13:40:04;97660.69;;;31.55;100.00
31239;BME280;17871;31.584;74.450;2022-07-29T13:42:33;97663.56;;;31.52;100.00
31239;BME280;17871;31.584;74.450;2022-07-29T13:45:03;97658.16;;;31.53;100.00
31239;BME280;17871;31.584;74.450;2022-07-29T13:47:33;97659.78;;;31.45;100.00
31239;BME280;17871;31.584;74.450;2022-07-29T13:50:03;97657.56;;;31.40;100.00
31239;BME280;17871;31.584;74.450;2022-07-29T13:52:34;97661.00;;;31.21;100.00
31239;BME280;17871;31.584;74.450;2022-07-29T13:55:04;97660.16;;;31.21;100.00
31239;BME280;17871;31.584;74.450;2022-07-29T13:57:33;97650.84;;;31.17;100.00
31239;BME280;17871;31.584;74.450;2022-07-29T14:00:03;97638.75;;;31.14;100.00
31239;BME280;17871;31.584;74.450;2022-07-29T14:02:34;97628.84;;;31.07;100.00
31239;BME280;17871;31.584;74.450;2022-07-29T14:05:04;97632.63;;;31.14;100.00
31239;BME280;17871;31.584;74.450;2022-07-29T14:07:37;97632.06;;;31.10;100.00
31239;BME280;17871;31.584;74.450;2022-07-29T14:10:07;97635.69;;;31.19;100.00
31239;BME280;17871;31.584;74.450;2022-07-29T14:12:36;97634.03;;;31.18;100.00
31239;BME280;17871;31.584;74.450;2022-07-29T14:15:06;97629.50;;;30.99;100.00
31239;BME280;17871;31.584;74.450;2022-07-29T14:17:36;97632.94;;;30.90;100.00